Airfield :







YOU CAN JOIN US ON...

 
LOGIN :

Register | Disclaimer

   EN    FR    IT 

 









Legend :    VFR   Marginal VFR   IFR   Intensive IFR   Very Intensive IFR
Visi :
Ceiling :
>= 8 km
>= 3000ft
5 to 8 km
1000 to 3000 ft
1500m to 5 km
500 to 1000 ft
800 to 1500m
200 to 500 ft
< 800m
< 200 ft
Symbols :   Thunderstorms  Fog  Heavy snow  Heavy precipitations  Wind > 20 kt






- Airport Elevation : 71 ft
- IATA code : YBC


CYBC - Baie Comeau

CURRENT METAR :
  • 230201Z AUTO 29003KT 9SM SCT005 BKN012 BKN017 OVC022 10/10 A2979 RMK SLP090

EXPIRED METARs :
  • 230130Z AUTO 35002KT 9SM OVC003 10/10 A2978 RMK SLP087
  • 230114Z AUTO VRB02KT 7SM -RA OVC005 10/10 A2977 RMK SLP084
  • 230041Z AUTO 19006KT 2SM -RA BR BKN003 OVC009 10/10 A2977 RMK SLP083
  • 230028Z AUTO 20005KT 1 3/4SM -RA BR OVC003 10/10 A2976 RMK SLP081
  • 230024Z AUTO 21007KT 2 1/2SM -RA BR OVC003 10/10 A2976 RMK SLP081
  • 230016Z AUTO 19006KT 4SM BR BKN003 OVC012 10/10 A2976 RMK SLP081
  • 230007Z AUTO 17008KT 5SM -RA BR BKN003 OVC012 10/10 A2976 RMK SLP081
  • 222357Z AUTO 18009KT 5SM -RA BR FEW005 OVC012 11/10 A2976 RMK SLP080
  • 222300Z AUTO 11005KT 9SM OVC014 11/11 A2974 RMK SLP073

TAF TAF CYBC
Valid from the 23 at 02:00 until the 23 at 14:00 UTC


230138Z 2302/2314 21005KT 2SM -SHRA BR BKN003 OVC010
TEMPO 2302/2304 P6SM NSW OVC010
BECMG 2302/2304 29012KT
FM230400 29012KT P6SM OVC015
TEMPO 2304/2314 SCT015 BKN030 RMK FCST BASED ON AUTO OBS. NXT FCST BY 230800Z
CZUL FIR / North America



MET'MAP, your aeronautical weather chart ! - Copyright ORBIFLY December 2007 - Disclaimer

ORBIFLY MET'MAP TEAM :

Programming & Development : Alexandra Zaïnal
Concept & original design : Baudouin d'Aumeries
Assistance for programming : Marc-Olivier Méhu
Technical & hardware support : Manuel Goepfert

Contact : metmap@orbifly.com




SOURCES & CREDITS :

   NOAA